Time;durP1;ratioP1;P1;durP2;ratioP2;P2;SDS_P1;SDS_P2;PMS_P1;PMS_P2;Temp;Humidity;BMP_temperature;BMP_pressure;BME280_temperature;BME280_humidity;BME280_pressure;Samples;Min_cycle;Max_cycle;Signal;HPM_P1;HPM_P2
2024/02/20 00:00:35;;;;;;;;;;;;;;;7.63;100.00;100778.53;4994765;28;20012;-87
2024/02/20 00:03:00;;;;;;;;;;;;;;;7.62;100.00;100769.72;5012385;28;20460;-88
2024/02/20 00:05:25;;;;;;;;;;;;;;;7.66;100.00;100769.69;5012274;28;19924;-87
2024/02/20 00:07:51;;;;;;;;;;;;;;;7.63;100.00;100773.25;4994562;28;19927;-87
2024/02/20 00:10:16;;;;;;;;;;;;;;;7.67;100.00;100774.94;5000820;28;19963;-88
2024/02/20 00:12:42;;;;;;;;;;;;;;;7.69;100.00;100767.91;5012321;28;20395;-88
2024/02/20 00:15:08;;;;;;;;;;;;;;;7.57;100.00;100768.06;4993849;28;19921;-88
2024/02/20 09:00:37;;;;;;;;;;;;;;;7.34;100.00;101038.22;5562097;23;19937;-83
2024/02/20 09:03:04;;;;;;;;;;;;;;;7.28;100.00;101036.50;4995998;28;19922;-81
2024/02/20 09:05:30;;;;;;;;;;;;;;;7.31;100.00;101045.28;4995929;28;19921;-81
2024/02/20 09:07:55;;;;;;;;;;;;;;;7.31;100.00;101043.53;4995792;28;19926;-81
2024/02/20 09:10:21;;;;;;;;;;;;;;;7.33;100.00;101043.50;4995994;28;19922;-81
2024/02/20 09:12:46;;;;;;;;;;;;;;;7.98;100.00;101041.91;4995901;28;20365;-87
2024/02/20 09:15:11;;;;;;;;;;;;;;;9.17;100.00;101042.00;4993206;28;20016;-85
2024/02/20 09:17:38;;;;;;;;;;;;;;;8.01;100.00;101043.66;4985391;28;19917;-84
2024/02/20 09:20:04;;;;;;;;;;;;;;;7.85;100.00;101052.63;4985788;28;19918;-84
2024/02/20 09:22:29;;;;;;;;;;;;;;;7.76;100.00;101057.13;4985791;28;20296;-88
2024/02/20 09:24:55;;;;;;;;;;;;;;;7.73;100.00;101053.66;4994328;28;19929;-85
2024/02/20 09:27:20;;;;;;;;;;;;;;;7.70;100.00;101059.81;4995608;28;19937;-87
2024/02/20 09:29:45;;;;;;;;;;;;;;;8.24;100.00;101055.69;4992211;28;19914;-79
2024/02/20 09:32:11;;;;;;;;;;;;;;;8.62;100.00;101056.97;4995559;28;19917;-80
2024/02/20 09:34:36;;;;;;;;;;;;;;;8.59;100.00;101057.00;4985992;28;19918;-80
2024/02/20 09:37:02;;;;;;;;;;;;;;;8.18;100.00;101057.53;4985603;28;19921;-81
2024/02/20 09:39:27;;;;;;;;;;;;;;;8.01;100.00;101054.22;4986002;28;19976;-82
2024/02/20 09:41:53;;;;;;;;;;;;;;;7.86;100.00;101054.38;4995219;28;20008;-81
2024/02/20 09:44:26;;;;;;;;;;;;;;;7.90;100.00;101058.75;4993203;28;19918;-81
2024/02/20 09:46:52;;;;;;;;;;;;;;;7.82;100.00;101067.63;4993937;28;20478;-81
2024/02/20 09:49:18;;;;;;;;;;;;;;;7.77;100.00;101065.91;4995129;28;19917;-81
2024/02/20 09:51:45;;;;;;;;;;;;;;;7.73;100.00;101065.06;4993773;28;19921;-81
2024/02/20 09:54:11;;;;;;;;;;;;;;;7.72;100.00;101065.09;4985126;28;19925;-81
2024/02/20 09:56:37;;;;;;;;;;;;;;;7.74;100.00;101064.19;4994753;28;19918;-80
2024/02/20 09:59:03;;;;;;;;;;;;;;;7.70;100.00;101070.38;4985493;28;20384;-81
2024/02/20 10:01:28;;;;;;;;;;;;;;;7.72;100.00;101079.16;4992023;28;19968;-81
2024/02/20 10:03:56;;;;;;;;;;;;;;;7.73;100.00;101080.91;5004388;28;19961;-80
2024/02/20 10:06:23;;;;;;;;;;;;;;;7.75;100.00;101088.81;5013796;28;20566;-81
2024/02/20 10:08:50;;;;;;;;;;;;;;;7.70;100.00;101075.66;5014284;28;19913;-81
2024/02/20 10:11:16;;;;;;;;;;;;;;;7.69;100.00;101078.31;5014304;28;19965;-81
2024/02/20 10:13:41;;;;;;;;;;;;;;;7.64;100.00;101071.34;5014265;28;20420;-80
2024/02/20 10:16:13;;;;;;;;;;;;;;;7.57;100.00;101072.28;5012864;28;19921;-81
2024/02/20 10:18:38;;;;;;;;;;;;;;;7.61;100.00;101073.09;5014094;28;19972;-80
2024/02/20 10:21:05;;;;;;;;;;;;;;;7.64;100.00;101079.25;5013956;28;19917;-81
2024/02/20 10:23:30;;;;;;;;;;;;;;;7.61;100.00;101073.09;5013797;28;19921;-81
2024/02/20 10:26:02;;;;;;;;;;;;;;;7.65;100.00;101066.91;4991530;28;19918;-81
2024/02/20 10:28:27;;;;;;;;;;;;;;;7.67;100.00;101067.78;5013822;28;19922;-81
2024/02/20 10:30:54;;;;;;;;;;;;;;;7.61;100.00;101060.81;4988755;28;19924;-81
2024/02/20 10:33:19;;;;;;;;;;;;;;;7.62;100.00;101067.81;4991114;28;19924;-81
2024/02/20 10:35:44;;;;;;;;;;;;;;;7.68;100.00;101060.75;5003819;28;19922;-81
2024/02/20 10:38:12;;;;;;;;;;;;;;;7.61;100.00;101062.56;5003990;28;19948;-81
2024/02/20 10:40:37;;;;;;;;;;;;;;;7.63;100.00;101058.16;4989911;28;19972;-82
2024/02/20 10:43:05;;;;;;;;;;;;;;;7.67;100.00;101061.63;5013626;28;20280;-80
2024/02/20 10:45:30;;;;;;;;;;;;;;;7.60;100.00;101055.53;5012426;28;19944;-79
2024/02/20 10:47:57;;;;;;;;;;;;;;;7.61;100.00;101055.53;5004496;28;20447;-79
2024/02/20 10:50:23;;;;;;;;;;;;;;;7.62;100.00;101061.69;5012769;28;19921;-77
2024/02/20 10:52:50;;;;;;;;;;;;;;;7.64;100.00;101065.16;4991809;28;20343;-78
2024/02/20 10:55:15;;;;;;;;;;;;;;;7.61;100.00;101059.91;5010672;28;19921;-80
2024/02/20 10:57:42;;;;;;;;;;;;;;;7.64;100.00;101057.25;5013823;28;20396;-81
2024/02/20 11:00:09;;;;;;;;;;;;;;;7.68;100.00;101061.63;5012394;28;19925;-79
2024/02/20 11:02:45;;;;;;;;;;;;;;;7.59;100.00;101045.88;5013583;28;20380;-79
2024/02/20 11:05:12;;;;;;;;;;;;;;;7.65;100.00;101045.81;5013232;28;19925;-81
2024/02/20 11:07:37;;;;;;;;;;;;;;;7.64;100.00;101044.06;5013483;28;19955;-79
2024/02/20 11:10:03;;;;;;;;;;;;;;;7.67;100.00;101038.75;5012921;28;19953;-80
2024/02/20 11:12:29;;;;;;;;;;;;;;;7.62;100.00;101030.88;5013548;28;19917;-80
2024/02/20 11:15:05;;;;;;;;;;;;;;;7.66;100.00;101030.84;5012648;28;20000;-77
2024/02/20 11:17:36;;;;;;;;;;;;;;;7.53;100.00;101035.38;5013304;28;19921;-80
2024/02/20 11:20:09;;;;;;;;;;;;;;;7.57;100.00;101032.69;4995013;28;19968;-79
2024/02/20 11:22:35;;;;;;;;;;;;;;;7.61;100.00;101033.53;4990921;28;19921;-80
2024/02/20 11:25:08;;;;;;;;;;;;;;;7.67;100.00;101033.47;5012806;28;19924;-81
2024/02/20 11:27:43;;;;;;;;;;;;;;;7.55;100.00;101028.34;5012810;28;20292;-80
2024/02/20 11:30:19;;;;;;;;;;;;;;;7.65;100.00;101019.44;5008328;28;19921;-80
2024/02/20 11:32:45;;;;;;;;;;;;;;;7.59;100.00;101016.88;4989157;28;19917;-79
2024/02/20 11:35:24;;;;;;;;;;;;;;;7.63;100.00;101013.31;5003004;28;20339;-80
2024/02/20 11:37:51;;;;;;;;;;;;;;;7.62;100.00;101019.47;5002702;28;19926;-78
2024/02/20 11:40:22;;;;;;;;;;;;;;;7.65;100.00;101024.72;5012492;28;20359;-85
2024/02/20 11:42:47;;;;;;;;;;;;;;;7.64;100.00;101023.84;5002173;28;19917;-82
2024/02/20 11:45:20;;;;;;;;;;;;;;;7.66;100.00;101022.94;5010696;28;19921;-82
2024/02/20 11:47:57;;;;;;;;;;;;;;;7.71;100.00;101015.88;5012198;28;20012;-81
2024/02/20 11:50:22;;;;;;;;;;;;;;;7.67;100.00;101022.91;5012245;28;19924;-81
2024/02/20 11:52:56;;;;;;;;;;;;;;;7.69;100.00;101009.72;5012155;28;19917;-82
2024/02/20 11:55:21;;;;;;;;;;;;;;;7.61;100.00;101012.44;5011702;28;19921;-80
2024/02/20 11:57:46;;;;;;;;;;;;;;;7.66;100.00;101009.75;5012053;28;19925;-80
2024/02/20 12:00:13;;;;;;;;;;;;;;;7.71;100.00;101003.53;5010988;28;19924;-81
2024/02/20 12:02:39;;;;;;;;;;;;;;;7.68;100.00;101003.56;5011228;28;19921;-80
2024/02/20 12:05:08;;;;;;;;;;;;;;;7.57;100.00;101011.59;5002132;28;19972;-79
2024/02/20 12:07:33;;;;;;;;;;;;;;;7.64;100.00;101005.38;4990139;28;20301;-81
2024/02/20 12:09:59;;;;;;;;;;;;;;;7.66;100.00;101002.72;4988706;28;19921;-80
2024/02/20 12:12:25;;;;;;;;;;;;;;;7.66;100.00;101000.09;5002346;28;19996;-80
2024/02/20 12:14:58;;;;;;;;;;;;;;;7.67;100.00;101000.94;5007463;28;19918;-79
2024/02/20 12:17:27;;;;;;;;;;;;;;;8.63;100.00;101000.56;5011719;28;19921;-79
2024/02/20 12:20:02;;;;;;;;;;;;;;;7.88;100.00;100994.53;5011683;28;19925;-80
2024/02/20 12:22:28;;;;;;;;;;;;;;;7.75;100.00;100991.19;5002289;28;20396;-80
2024/02/20 12:25:03;;;;;;;;;;;;;;;7.74;100.00;100992.94;4988371;28;19996;-79
2024/02/20 12:27:29;;;;;;;;;;;;;;;7.80;100.00;100987.59;5002613;28;20373;-79
2024/02/20 12:29:55;;;;;;;;;;;;;;;7.77;100.00;100978.81;5001192;28;20008;-79
2024/02/20 12:32:20;;;;;;;;;;;;;;;7.76;100.00;100970.06;4988804;28;20631;-80
2024/02/20 12:34:45;;;;;;;;;;;;;;;7.76;100.00;100962.13;5011993;28;19929;-80
2024/02/20 12:37:10;;;;;;;;;;;;;;;7.70;100.00;100959.56;4971418;28;19924;-79
2024/02/20 12:39:35;;;;;;;;;;;;;;;7.69;100.00;100973.69;5002182;28;20372;-80
2024/02/20 12:42:01;;;;;;;;;;;;;;;7.69;100.00;100960.47;5011556;28;19925;-82
2024/02/20 12:44:26;;;;;;;;;;;;;;;7.73;100.00;100950.75;4989081;28;19925;-79
2024/02/20 12:46:51;;;;;;;;;;;;;;;7.75;100.00;100949.81;5012111;28;20348;-78
2024/02/20 12:49:17;;;;;;;;;;;;;;;7.73;100.00;100951.63;5011740;28;20028;-78
2024/02/20 12:51:42;;;;;;;;;;;;;;;7.69;100.00;100947.28;5010857;28;20371;-79
2024/02/20 12:54:07;;;;;;;;;;;;;;;7.76;100.00;100938.38;5011779;28;19968;-79
2024/02/20 12:56:32;;;;;;;;;;;;;;;7.75;100.00;100936.63;5001818;28;19969;-77
2024/02/20 12:58:58;;;;;;;;;;;;;;;7.75;100.00;100915.53;5001657;28;19921;-79
2024/02/20 13:01:23;;;;;;;;;;;;;;;7.72;100.00;100925.25;5000720;28;19921;-79
2024/02/20 13:03:48;;;;;;;;;;;;;;;7.73;100.00;100922.59;5012855;28;19921;-81
2024/02/20 13:06:13;;;;;;;;;;;;;;;7.71;100.00;100918.25;5014657;28;20376;-80
2024/02/20 13:08:38;;;;;;;;;;;;;;;7.81;100.00;100923.38;5015117;28;20391;-79
2024/02/20 13:11:06;;;;;;;;;;;;;;;7.73;100.00;100912.03;4992183;28;19988;-79
2024/02/20 13:13:31;;;;;;;;;;;;;;;7.75;100.00;100923.44;5015450;28;20337;-80
2024/02/20 13:15:56;;;;;;;;;;;;;;;7.81;100.00;100920.72;5004535;28;20040;-80
2024/02/20 13:18:22;;;;;;;;;;;;;;;7.69;100.00;100920.91;5015205;28;20368;-80
2024/02/20 13:20:48;;;;;;;;;;;;;;;7.72;100.00;100920.88;5015235;28;19921;-81
2024/02/20 13:23:13;;;;;;;;;;;;;;;7.74;100.00;100919.06;5015028;28;19917;-80
2024/02/20 13:25:39;;;;;;;;;;;;;;;7.60;100.00;100924.53;5005559;28;19921;-84
2024/02/20 13:28:07;;;;;;;;;;;;;;;7.72;100.00;100909.44;5015279;28;20016;-79
2024/02/20 13:30:32;;;;;;;;;;;;;;;7.81;100.00;100909.31;5013960;28;19993;-81
2024/02/20 13:32:58;;;;;;;;;;;;;;;7.77;100.00;100904.94;5015124;28;19929;-82
2024/02/20 13:35:23;;;;;;;;;;;;;;;7.82;100.00;100896.09;5014651;28;20515;-81
2024/02/20 13:37:48;;;;;;;;;;;;;;;7.80;100.00;100894.34;5014954;28;19917;-81
2024/02/20 13:40:14;;;;;;;;;;;;;;;7.79;100.00;100893.50;5014825;28;19924;-82
2024/02/20 13:42:39;;;;;;;;;;;;;;;7.73;100.00;100892.72;5015013;28;20344;-80
2024/02/20 13:45:05;;;;;;;;;;;;;;;7.77;100.00;100902.31;4989678;28;19918;-81
2024/02/20 13:47:32;;;;;;;;;;;;;;;7.76;100.00;100901.44;5014759;28;20284;-81
2024/02/20 13:49:57;;;;;;;;;;;;;;;7.71;100.00;100894.50;5014083;28;19996;-81
2024/02/20 13:52:23;;;;;;;;;;;;;;;7.73;100.00;100893.56;5014491;28;19953;-80
2024/02/20 13:54:48;;;;;;;;;;;;;;;7.76;100.00;100882.97;5014730;28;19921;-80
2024/02/20 13:57:13;;;;;;;;;;;;;;;7.69;100.00;100894.53;5014834;28;19917;-80
2024/02/20 13:59:39;;;;;;;;;;;;;;;7.70;100.00;100890.97;5013450;28;19972;-80
2024/02/20 14:02:08;;;;;;;;;;;;;;;7.63;100.00;100887.56;5014162;28;19929;-91
2024/02/20 14:04:33;;;;;;;;;;;;;;;7.67;100.00;100880.47;4992462;28;20312;-83
2024/02/20 14:06:59;;;;;;;;;;;;;;;7.72;100.00;100875.13;5014395;28;19924;-85
2024/02/20 14:09:24;;;;;;;;;;;;;;;7.80;100.00;100860.94;5014403;28;19918;-82
2024/02/20 14:11:50;;;;;;;;;;;;;;;7.73;100.00;100856.63;5014593;28;19936;-81
2024/02/20 14:14:15;;;;;;;;;;;;;;;7.74;100.00;100860.16;4991082;28;19917;-81
2024/02/20 14:16:40;;;;;;;;;;;;;;;7.77;100.00;100863.63;5013006;28;19929;-81
2024/02/20 14:19:05;;;;;;;;;;;;;;;7.62;100.00;100861.19;5014104;28;19918;-81
2024/02/20 14:21:31;;;;;;;;;;;;;;;7.74;100.00;100858.41;4990800;28;19932;-81
2024/02/20 14:23:56;;;;;;;;;;;;;;;7.79;100.00;100858.34;5013065;28;19928;-78
2024/02/20 14:26:22;;;;;;;;;;;;;;;7.82;100.00;100863.56;5012686;28;19932;-78
2024/02/20 14:28:49;;;;;;;;;;;;;;;7.84;100.00;100861.78;5012059;28;20427;-79
2024/02/20 14:31:15;;;;;;;;;;;;;;;7.84;100.00;100856.50;4990323;28;19976;-89
2024/02/20 14:33:43;;;;;;;;;;;;;;;7.70;100.00;100843.50;5004445;28;19924;-79
2024/02/20 14:36:08;;;;;;;;;;;;;;;7.68;100.00;100840.00;5004038;28;20288;-83
2024/02/20 14:38:33;;;;;;;;;;;;;;;7.70;100.00;100840.84;5003776;28;19918;-80
2024/02/20 14:40:58;;;;;;;;;;;;;;;7.75;100.00;100840.78;5007597;28;19956;-80
2024/02/20 14:43:24;;;;;;;;;;;;;;;7.70;100.00;100837.34;5009477;28;19921;-81
2024/02/20 14:45:49;;;;;;;;;;;;;;;7.69;100.00;100835.59;5012062;28;19932;-80
2024/02/20 14:48:15;;;;;;;;;;;;;;;7.77;100.00;100831.06;5013356;28;19971;-80
2024/02/20 14:50:40;;;;;;;;;;;;;;;7.63;100.00;100831.31;5013656;28;19913;-80
2024/02/20 14:53:07;;;;;;;;;;;;;;;7.58;100.00;100835.78;5012895;28;20530;-81
2024/02/20 14:55:33;;;;;;;;;;;;;;;7.75;100.00;100822.31;5012286;28;20008;-80
2024/02/20 14:58:07;;;;;;;;;;;;;;;7.72;100.00;100811.81;4992442;28;20361;-79
2024/02/20 15:00:32;;;;;;;;;;;;;;;7.71;100.00;100808.31;5011389;28;20384;-81
2024/02/20 15:02:58;;;;;;;;;;;;;;;7.67;100.00;100816.28;4992305;28;19976;-80
2024/02/20 15:05:23;;;;;;;;;;;;;;;7.69;100.00;100810.09;4991003;28;19921;-81
2024/02/20 15:07:48;;;;;;;;;;;;;;;7.76;100.00;100806.47;4990300;28;19983;-84
2024/02/20 15:10:14;;;;;;;;;;;;;;;7.72;100.00;100807.44;5004691;28;19921;-79
2024/02/20 15:12:39;;;;;;;;;;;;;;;7.69;100.00;100799.56;5013069;28;19925;-82
2024/02/20 15:15:06;;;;;;;;;;;;;;;7.67;100.00;100785.50;4990160;28;19925;-80
2024/02/20 15:17:32;;;;;;;;;;;;;;;7.76;100.00;100787.13;5012687;28;19983;-81
2024/02/20 15:19:58;;;;;;;;;;;;;;;7.77;100.00;100783.59;4994442;28;20715;-80
2024/02/20 15:22:23;;;;;;;;;;;;;;;7.63;100.00;100791.72;4992602;28;19929;-82
2024/02/20 15:24:49;;;;;;;;;;;;;;;7.70;100.00;100790.72;4989276;28;20431;-79
2024/02/20 15:27:18;;;;;;;;;;;;;;;7.69;100.00;100778.44;5003223;28;19917;-83
2024/02/20 15:29:45;;;;;;;;;;;;;;;7.80;100.00;100781.78;5007221;28;20404;-80
2024/02/20 15:32:10;;;;;;;;;;;;;;;7.75;100.00;100775.69;5012674;28;20365;-80
2024/02/20 15:34:36;;;;;;;;;;;;;;;7.79;100.00;100771.25;5012568;28;19932;-81
2024/02/20 15:37:01;;;;;;;;;;;;;;;7.80;100.00;100784.44;5012743;28;19925;-81
2024/02/20 15:39:27;;;;;;;;;;;;;;;7.81;100.00;100788.78;4988254;28;19928;-80
2024/02/20 15:41:52;;;;;;;;;;;;;;;7.76;100.00;100790.63;5002580;28;20448;-80
2024/02/20 15:44:17;;;;;;;;;;;;;;;7.80;100.00;100795.00;5002419;28;19999;-81
2024/02/20 15:46:43;;;;;;;;;;;;;;;7.79;100.00;100789.72;5001414;28;19918;-81
2024/02/20 15:49:09;;;;;;;;;;;;;;;7.79;100.00;100792.38;5011897;28;20372;-83
2024/02/20 15:51:39;;;;;;;;;;;;;;;7.77;100.00;100780.94;5011797;28;19928;-81
2024/02/20 15:54:04;;;;;;;;;;;;;;;7.80;100.00;100781.78;4989413;28;19940;-79
2024/02/20 15:56:29;;;;;;;;;;;;;;;7.72;100.00;100778.41;5006660;28;20444;-82
2024/02/20 15:58:54;;;;;;;;;;;;;;;7.71;100.00;100776.66;5012189;28;19992;-80
2024/02/20 16:01:20;;;;;;;;;;;;;;;7.76;100.00;100771.31;5010302;28;19925;-80
2024/02/20 16:03:45;;;;;;;;;;;;;;;7.81;100.00;100772.97;5012324;28;19921;-80
2024/02/20 16:06:10;;;;;;;;;;;;;;;7.80;100.00;100771.25;5011815;28;20340;-80
2024/02/20 16:08:36;;;;;;;;;;;;;;;7.78;100.00;100762.47;5011483;28;19928;-81
2024/02/20 16:11:01;;;;;;;;;;;;;;;7.80;100.00;100767.72;5011695;28;20269;-84
2024/02/20 16:13:27;;;;;;;;;;;;;;;7.82;100.00;100761.53;5002241;28;20016;-78
2024/02/20 16:15:52;;;;;;;;;;;;;;;7.78;100.00;100764.22;5001015;28;19927;-80
2024/02/20 16:18:17;;;;;;;;;;;;;;;7.70;100.00;100774.91;5002774;28;19917;-81
2024/02/20 16:20:44;;;;;;;;;;;;;;;7.81;100.00;100772.09;5002385;28;19922;-81
2024/02/20 16:23:10;;;;;;;;;;;;;;;7.77;100.00;100759.84;5011678;28;19979;-81
2024/02/20 16:25:36;;;;;;;;;;;;;;;7.75;100.00;100761.63;5002146;28;19926;-83
2024/02/20 16:28:02;;;;;;;;;;;;;;;7.73;100.00;100753.75;5002214;28;20294;-80
2024/02/20 16:30:27;;;;;;;;;;;;;;;7.78;100.00;100757.19;5001193;28;19917;-80
2024/02/20 16:32:53;;;;;;;;;;;;;;;7.74;100.00;100763.41;5012066;28;19928;-81
2024/02/20 16:35:18;;;;;;;;;;;;;;;7.77;100.00;100765.13;5012110;28;20357;-81
2024/02/20 16:37:43;;;;;;;;;;;;;;;7.80;100.00;100773.88;5011970;28;19957;-83
2024/02/20 16:40:09;;;;;;;;;;;;;;;7.84;100.00;100771.19;5015484;28;19925;-81
2024/02/20 16:42:34;;;;;;;;;;;;;;;7.76;100.00;100768.66;5015952;28;19925;-80
2024/02/20 16:45:00;;;;;;;;;;;;;;;7.81;100.00;100780.88;5014642;28;19925;-80
2024/02/20 16:47:25;;;;;;;;;;;;;;;7.64;100.00;100782.91;5016504;28;20336;-80
2024/02/20 16:49:50;;;;;;;;;;;;;;;7.72;100.00;100783.69;5015876;28;19914;-80
2024/02/20 16:52:15;;;;;;;;;;;;;;;7.78;100.00;100787.97;5015848;28;19918;-80
2024/02/20 16:54:41;;;;;;;;;;;;;;;7.81;100.00;100783.50;5015805;28;19918;-80
2024/02/20 16:57:12;;;;;;;;;;;;;;;7.79;100.00;100795.00;5005921;28;19953;-80
2024/02/20 16:59:40;;;;;;;;;;;;;;;7.77;100.00;100789.75;5014129;28;19918;-80
2024/02/20 17:02:06;;;;;;;;;;;;;;;7.70;100.00;100790.72;5015458;28;19925;-80
2024/02/20 17:04:31;;;;;;;;;;;;;;;7.78;100.00;100801.16;5015404;28;19917;-81
2024/02/20 17:06:56;;;;;;;;;;;;;;;7.75;100.00;100802.06;4990986;28;19921;-80
2024/02/20 17:09:21;;;;;;;;;;;;;;;7.77;100.00;100802.94;5006131;28;19917;-80
2024/02/20 17:11:47;;;;;;;;;;;;;;;7.86;100.00;100803.69;5005526;28;19917;-80
2024/02/20 17:14:12;;;;;;;;;;;;;;;7.82;100.00;100805.53;5015374;28;20380;-80
2024/02/20 17:16:41;;;;;;;;;;;;;;;7.79;100.00;100806.44;5013907;28;19964;-80
2024/02/20 17:19:07;;;;;;;;;;;;;;;7.79;100.00;100806.44;5015264;28;19972;-80
2024/02/20 17:21:33;;;;;;;;;;;;;;;7.77;100.00;100818.78;5014436;28;20008;-83
2024/02/20 17:23:58;;;;;;;;;;;;;;;7.65;100.00;100813.66;5015471;28;20008;-79
2024/02/20 17:26:24;;;;;;;;;;;;;;;7.68;100.00;100813.63;4992524;28;19983;-81
2024/02/20 17:28:49;;;;;;;;;;;;;;;7.73;100.00;100806.50;5015135;28;19927;-81
2024/02/20 17:31:20;;;;;;;;;;;;;;;7.80;100.00;100804.66;5014274;28;20402;-80
2024/02/20 17:33:46;;;;;;;;;;;;;;;7.78;100.00;100802.03;4990375;28;20605;-79
2024/02/20 17:36:19;;;;;;;;;;;;;;;7.78;100.00;100795.91;5014729;28;19917;-80
2024/02/20 17:38:44;;;;;;;;;;;;;;;7.72;100.00;100801.25;5014514;28;20064;-80
2024/02/20 17:41:19;;;;;;;;;;;;;;;7.69;100.00;100794.28;5014886;28;20020;-80
2024/02/20 17:43:45;;;;;;;;;;;;;;;7.71;100.00;100792.47;5014011;28;19918;-80
2024/02/20 17:46:14;;;;;;;;;;;;;;;7.75;100.00;100783.59;5003507;28;19972;-81
2024/02/20 17:48:40;;;;;;;;;;;;;;;7.75;100.00;100788.88;4991318;28;19933;-80
2024/02/20 17:51:05;;;;;;;;;;;;;;;7.68;100.00;100789.88;4993515;28;19917;-80
2024/02/20 17:53:30;;;;;;;;;;;;;;;7.77;100.00;100781.84;5014636;28;20377;-79
2024/02/20 17:55:55;;;;;;;;;;;;;;;7.72;100.00;100778.41;5014700;28;20139;-79
2024/02/20 17:58:21;;;;;;;;;;;;;;;7.80;100.00;100776.53;5014574;28;19917;-79
2024/02/20 18:00:46;;;;;;;;;;;;;;;7.78;100.00;100782.69;5013222;28;20415;-79
2024/02/20 18:03:11;;;;;;;;;;;;;;;7.76;100.00;100769.53;5004866;28;19917;-78
2024/02/20 18:05:36;;;;;;;;;;;;;;;7.84;100.00;100776.47;4992676;28;19922;-76
2024/02/20 18:08:02;;;;;;;;;;;;;;;7.84;100.00;100782.59;5004630;28;20004;-78
2024/02/20 18:10:28;;;;;;;;;;;;;;;7.76;100.00;100782.72;4990928;28;19964;-81
2024/02/20 18:12:54;;;;;;;;;;;;;;;7.74;100.00;100784.53;5004092;28;20270;-76
2024/02/20 18:15:19;;;;;;;;;;;;;;;7.73;100.00;100782.75;5004039;28;19925;-79
2024/02/20 18:17:46;;;;;;;;;;;;;;;7.76;100.00;100790.63;5004238;28;19925;-79
2024/02/20 18:20:11;;;;;;;;;;;;;;;7.76;100.00;100789.78;5004317;28;19918;-80
2024/02/20 18:22:36;;;;;;;;;;;;;;;7.72;100.00;100783.69;5013256;28;19922;-80
2024/02/20 18:25:03;;;;;;;;;;;;;;;7.70;100.00;100782.81;5014100;28;20350;-82
2024/02/20 18:27:28;;;;;;;;;;;;;;;7.77;100.00;100781.84;5013404;28;19921;-80
2024/02/20 18:29:53;;;;;;;;;;;;;;;8.06;100.00;100782.25;5012608;28;20343;-81
2024/02/20 18:32:18;;;;;;;;;;;;;;;6.85;100.00;100778.69;4992478;28;20288;-81
2024/02/20 18:34:43;;;;;;;;;;;;;;;6.54;100.00;100779.03;5013756;28;19925;-81
2024/02/20 18:37:13;;;;;;;;;;;;;;;6.31;100.00;100775.75;4990842;28;19932;-81
2024/02/20 18:39:42;;;;;;;;;;;;;;;6.04;100.00;100771.63;5013101;28;19917;-80
2024/02/20 18:42:07;;;;;;;;;;;;;;;5.96;100.00;100769.91;5003782;28;20276;-77
2024/02/20 18:44:33;;;;;;;;;;;;;;;5.84;100.00;100764.72;4987729;28;19921;-79
2024/02/20 18:46:58;;;;;;;;;;;;;;;5.65;100.00;100764.00;5004017;28;20289;-81
2024/02/20 18:49:23;;;;;;;;;;;;;;;5.67;100.00;100761.34;4992669;28;19975;-80
2024/02/20 18:51:49;;;;;;;;;;;;;;;5.62;100.00;100767.50;5013816;28;19917;-81
2024/02/20 18:54:14;;;;;;;;;;;;;;;5.63;100.00;100771.88;5013391;28;19921;-80
2024/02/20 18:56:39;;;;;;;;;;;;;;;5.93;100.00;100780.41;5013323;28;19928;-79
2024/02/20 18:59:07;;;;;;;;;;;;;;;5.69;100.00;100781.47;5013213;28;20389;-80
2024/02/20 19:01:32;;;;;;;;;;;;;;;5.59;100.00;100785.94;5010936;28;20851;-79
2024/02/20 19:03:58;;;;;;;;;;;;;;;5.33;100.00;100777.31;5013187;28;19922;-78
2024/02/20 19:06:24;;;;;;;;;;;;;;;5.37;100.00;100773.81;5012736;28;19917;-80
2024/02/20 19:08:49;;;;;;;;;;;;;;;5.31;100.00;100772.06;5012022;28;20008;-81
2024/02/20 19:11:14;;;;;;;;;;;;;;;5.27;100.00;100773.84;5013083;28;20049;-82
2024/02/20 19:13:40;;;;;;;;;;;;;;;5.26;100.00;100777.38;5012876;28;19960;-84
2024/02/20 19:16:06;;;;;;;;;;;;;;;5.57;100.00;100771.94;5011566;28;19924;-82
2024/02/20 19:18:31;;;;;;;;;;;;;;;5.35;100.00;100772.94;5012172;28;19963;-81
2024/02/20 19:20:56;;;;;;;;;;;;;;;5.30;100.00;100766.81;4991891;28;19925;-83
2024/02/20 19:23:22;;;;;;;;;;;;;;;5.20;100.00;100761.63;5012984;28;19921;-81
2024/02/20 19:25:48;;;;;;;;;;;;;;;5.12;100.00;100765.16;5012752;28;19918;-81
2024/02/20 19:28:16;;;;;;;;;;;;;;;5.11;100.00;100769.56;5013064;28;19932;-82
2024/02/20 19:30:41;;;;;;;;;;;;;;;5.09;100.00;100779.22;5011689;28;19920;-81
2024/02/20 19:33:06;;;;;;;;;;;;;;;5.04;100.00;100776.59;5012478;28;20016;-81
2024/02/20 19:35:34;;;;;;;;;;;;;;;5.01;100.00;100778.34;5002617;28;19914;-81
2024/02/20 19:38:00;;;;;;;;;;;;;;;4.95;100.00;100781.88;5012484;28;19925;-81
2024/02/20 19:40:25;;;;;;;;;;;;;;;4.91;100.00;100775.78;5012701;28;19922;-81
2024/02/20 19:42:51;;;;;;;;;;;;;;;4.93;100.00;100777.50;5012222;28;20380;-80
2024/02/20 19:45:16;;;;;;;;;;;;;;;4.89;100.00;100782.75;5011099;28;19975;-79
2024/02/20 19:47:41;;;;;;;;;;;;;;;4.84;100.00;100784.53;5012513;28;20380;-80
2024/02/20 19:50:07;;;;;;;;;;;;;;;4.83;100.00;100782.78;5012436;28;19972;-83
2024/02/20 19:52:32;;;;;;;;;;;;;;;4.86;100.00;100776.66;5012449;28;19961;-82
2024/02/20 19:54:57;;;;;;;;;;;;;;;4.78;100.00;100778.44;4989603;28;19917;-81
2024/02/20 19:57:22;;;;;;;;;;;;;;;4.77;100.00;100781.94;5002357;28;19918;-82
2024/02/20 19:59:48;;;;;;;;;;;;;;;4.76;100.00;100780.22;5001123;28;19917;-80
2024/02/20 20:02:13;;;;;;;;;;;;;;;4.73;100.00;100781.94;5012168;28;20017;-80
2024/02/20 20:04:38;;;;;;;;;;;;;;;4.72;100.00;100779.31;5012082;28;19921;-81
2024/02/20 20:07:04;;;;;;;;;;;;;;;4.66;100.00;100776.72;5012200;28;19918;-81
2024/02/20 20:09:29;;;;;;;;;;;;;;;4.64;100.00;100781.09;5002646;28;19929;-81
2024/02/20 20:11:54;;;;;;;;;;;;;;;4.71;100.00;100769.72;5002181;28;19925;-80
2024/02/20 20:14:21;;;;;;;;;;;;;;;4.70;100.00;100774.06;5002129;28;19960;-81
2024/02/20 20:16:46;;;;;;;;;;;;;;;4.64;100.00;100775.84;5010490;28;20361;-81
2024/02/20 20:19:11;;;;;;;;;;;;;;;4.62;100.00;100772.38;5002464;28;19924;-81
2024/02/20 20:21:36;;;;;;;;;;;;;;;4.59;100.00;100772.38;4987884;28;19922;-81
2024/02/20 20:24:01;;;;;;;;;;;;;;;4.59;100.00;100772.38;5002027;28;19967;-80
2024/02/20 20:26:27;;;;;;;;;;;;;;;4.60;100.00;100771.50;5012141;28;19933;-80
2024/02/20 20:28:52;;;;;;;;;;;;;;;4.53;100.00;100768.91;5011872;28;19924;-80
2024/02/20 20:31:17;;;;;;;;;;;;;;;4.59;100.00;100764.50;5010942;28;19921;-80
2024/02/20 20:33:43;;;;;;;;;;;;;;;4.53;100.00;100763.63;5011864;28;19918;-82
2024/02/20 20:36:09;;;;;;;;;;;;;;;4.50;100.00;100774.16;5011995;28;19979;-79
2024/02/20 20:38:34;;;;;;;;;;;;;;;4.52;100.00;100774.16;5011977;28;20399;-81
2024/02/20 20:41:00;;;;;;;;;;;;;;;4.48;100.00;100773.28;5011932;28;19949;-81
2024/02/20 20:43:25;;;;;;;;;;;;;;;4.52;100.00;100767.13;5011664;28;19971;-80
2024/02/20 20:45:51;;;;;;;;;;;;;;;4.57;100.00;100763.63;4989527;28;19917;-82
2024/02/20 20:48:16;;;;;;;;;;;;;;;4.53;100.00;100775.88;5011635;28;20353;-80
2024/02/20 20:50:41;;;;;;;;;;;;;;;4.50;100.00;100768.91;5011908;28;19921;-80
2024/02/20 20:53:07;;;;;;;;;;;;;;;4.45;100.00;100761.91;5011670;28;19925;-84
2024/02/20 20:55:32;;;;;;;;;;;;;;;4.49;100.00;100763.66;4989786;28;19922;-81
2024/02/20 20:57:58;;;;;;;;;;;;;;;4.43;100.00;100764.53;5001596;28;20005;-81
2024/02/20 21:00:23;;;;;;;;;;;;;;;4.51;100.00;100760.13;5000612;28;20381;-80
2024/02/20 21:02:48;;;;;;;;;;;;;;;4.51;100.00;100765.38;5010728;28;20400;-81
2024/02/20 21:05:13;;;;;;;;;;;;;;;4.53;100.00;100758.41;5011683;28;19921;-81
2024/02/20 21:07:39;;;;;;;;;;;;;;;4.45;100.00;100757.53;5011875;28;19943;-81
2024/02/20 21:10:05;;;;;;;;;;;;;;;4.48;100.00;100765.41;5011559;28;19968;-81
2024/02/20 21:12:30;;;;;;;;;;;;;;;4.46;100.00;100754.03;4987968;28;19921;-80